Terminal Aerodrome Forecast
Issued by NWS

Home | Current Version | Previous Version | Text Only | Print | Product List | Glossary On
Versions: 1 2 3 4 5 6 7 8 9 10 11 12 13 14 15 16 17 18 19 20 21 22 23 24 25 26 27 28 29 30 31 32 33 34 35 36 37 38 39 40 41 42 43 44 45 46 47 48 49
000
FTUS45 KGJT 241736
TAFTEX
TAF
KTEX 241736Z 2418/2518 31006KT P6SM VCSH SCT035 BKN045 OVC050
     FM241900 27005KT P6SM VCTS SCT050 OVC080CB
      TEMPO 2419/2423 VRB10G20KT -TSRA BKN050CB
     FM250300 13003KT P6SM VCSH BKN100
     FM251200 14003KT P6SM FEW020 OVC070
     FM251500 VRB03KT P6SM SCT040 BKN090=

USA.gov is the U.S. government's official web portal to all federal, state and local government web resources and services.